TimeEDT,TemperatureF,Dew PointF,Humidity,Sea Level PressureIn,VisibilityMPH,Wind Direction,Wind SpeedMPH,Gust SpeedMPH,PrecipitationIn,Events,Conditions,WindDirDegrees,DateUTC
12:53 AM,75.9,70.0,82,30.05,10.0,Calm,Calm,-,N/A,,Clear,0,2013-08-04 04:53:00
1:53 AM,75.0,70.0,84,30.03,10.0,West,3.5,-,N/A,,Clear,260,2013-08-04 05:53:00
2:53 AM,75.0,69.1,82,30.02,10.0,WSW,3.5,-,N/A,,Clear,250,2013-08-04 06:53:00
3:53 AM,73.9,69.1,85,30.02,10.0,Calm,Calm,-,N/A,,Mostly Cloudy,0,2013-08-04 07:53:00
4:53 AM,73.9,69.1,85,30.03,10.0,NNW,3.5,-,N/A,,Overcast,330,2013-08-04 08:53:00
5:53 AM,73.9,69.1,85,30.04,10.0,NE,4.6,-,N/A,,Mostly Cloudy,40,2013-08-04 09:53:00
6:31 AM,73.4,69.8,88,30.06,10.0,Calm,Calm,-,N/A,,Mostly Cloudy,0,2013-08-04 10:31:00
6:53 AM,73.9,69.1,85,30.04,10.0,Calm,Calm,-,N/A,,Overcast,0,2013-08-04 10:53:00
7:53 AM,73.9,70.0,87,30.05,10.0,SSW,3.5,-,N/A,,Mostly Cloudy,200,2013-08-04 11:53:00
8:53 AM,78.1,70.0,76,30.06,10.0,West,3.5,-,N/A,,Mostly Cloudy,270,2013-08-04 12:53:00
9:53 AM,80.1,69.1,69,30.05,10.0,NW,4.6,-,N/A,,Mostly Cloudy,320,2013-08-04 13:53:00
10:53 AM,84.0,71.1,65,30.05,10.0,NW,5.8,-,N/A,,Mostly Cloudy,310,2013-08-04 14:53:00
11:53 AM,84.0,69.1,61,30.06,10.0,NNW,10.4,-,N/A,,Mostly Cloudy,330,2013-08-04 15:53:00
12:53 PM,86.0,70.0,59,30.04,10.0,NW,11.5,-,N/A,,Mostly Cloudy,320,2013-08-04 16:53:00
1:53 PM,88.0,69.1,53,30.03,10.0,NNE,11.5,-,N/A,,Mostly Cloudy,20,2013-08-04 17:53:00
2:53 PM,87.1,69.1,55,30.02,10.0,North,10.4,-,N/A,,Mostly Cloudy,10,2013-08-04 18:53:00
3:53 PM,89.1,64.9,45,30.01,10.0,North,12.7,-,N/A,,Mostly Cloudy,350,2013-08-04 19:53:00
4:53 PM,88.0,64.9,46,30.00,10.0,NNW,10.4,-,N/A,,Mostly Cloudy,330,2013-08-04 20:53:00
5:53 PM,87.1,64.0,46,30.00,10.0,NNW,9.2,-,N/A,,Mostly Cloudy,330,2013-08-04 21:53:00
6:53 PM,86.0,63.0,46,30.00,10.0,NNW,9.2,-,N/A,,Mostly Cloudy,330,2013-08-04 22:53:00
7:53 PM,82.0,63.0,52,30.01,10.0,NW,8.1,-,N/A,,Mostly Cloudy,320,2013-08-04 23:53:00
8:53 PM,79.0,63.0,58,30.02,10.0,NNW,4.6,-,N/A,,Scattered Clouds,330,2013-08-05 00:53:00
9:53 PM,75.9,62.1,62,30.04,10.0,NNW,4.6,-,N/A,,Scattered Clouds,330,2013-08-05 01:53:00
10:53 PM,75.9,62.1,62,30.06,10.0,North,6.9,-,N/A,,Partly Cloudy,10,2013-08-05 02:53:00
11:53 PM,73.9,62.1,66,30.07,10.0,NNE,5.8,-,N/A,,Partly Cloudy,20,2013-08-05 03:53:00